createdAt,value
2023-04-06T00:01:19.961Z,12.00
2023-04-06T00:06:26.423Z,12.00
2023-04-06T00:11:31.319Z,8.00
2023-04-06T00:16:36.466Z,13.33
2023-04-06T00:21:42.306Z,7.33
2023-04-06T00:26:47.464Z,9.50
2023-04-06T00:31:52.182Z,6.50
2023-04-06T00:36:58.956Z,4.00
2023-04-06T00:42:12.343Z,4.00
2023-04-06T00:52:22.233Z,11.33
2023-04-06T00:57:27.837Z,6.00
2023-04-06T01:02:34.399Z,2.00
2023-04-06T01:07:40.436Z,2.67
2023-04-06T01:12:52.908Z,6.00
2023-04-06T01:18:19.497Z,8.00
2023-04-06T01:23:34.995Z,6.00
2023-04-06T01:28:41.798Z,6.00
2023-04-06T01:34:01.542Z,5.50
2023-04-06T01:39:07.401Z,6.00
2023-04-06T01:44:16.654Z,3.00
2023-04-06T01:49:24.241Z,2.50
2023-04-06T01:54:33.171Z,4.00
2023-04-06T01:59:49.444Z,0.00
2023-04-06T02:05:18.016Z,4.00
2023-04-06T02:10:24.413Z,8.00
2023-04-06T02:15:30.631Z,4.50
2023-04-06T02:20:38.329Z,4.00
2023-04-06T02:25:44.027Z,6.67
2023-04-06T02:30:49.301Z,3.00
2023-04-06T02:35:55.839Z,6.50
2023-04-06T02:41:01.813Z,12.67
2023-04-06T02:46:09.757Z,2.67
2023-04-06T02:51:17.385Z,0.00
2023-04-06T02:56:28.914Z,4.67
2023-04-06T03:01:34.665Z,2.00
2023-04-06T03:06:42.773Z,4.00
2023-04-06T03:12:00.759Z,3.50
2023-04-06T03:17:08.409Z,4.00
2023-04-06T03:22:15.060Z,6.00
2023-04-06T03:27:21.538Z,2.50
2023-04-06T03:32:31.468Z,2.50
2023-04-06T03:37:38.033Z,4.00
2023-04-06T03:42:44.838Z,8.00
2023-04-06T03:47:53.219Z,0.67
2023-04-06T03:52:58.803Z,6.00
2023-04-06T03:58:06.033Z,10.00
2023-04-06T04:03:11.665Z,4.00
2023-04-06T04:08:17.109Z,11.33
2023-04-06T04:13:22.871Z,6.00
2023-04-06T04:18:30.101Z,8.00
2023-04-06T04:23:37.320Z,4.00
2023-04-06T04:28:42.939Z,4.00
2023-04-06T04:33:48.528Z,3.00
2023-04-06T04:39:03.419Z,8.00
2023-04-06T04:44:14.748Z,13.00
2023-04-06T04:49:20.547Z,4.67
2023-04-06T04:54:27.876Z,9.00
2023-04-06T04:59:35.297Z,8.00
2023-04-06T05:04:49.865Z,9.00
2023-04-06T05:09:59.650Z,6.00
2023-04-06T05:15:09.312Z,2.00
2023-04-06T05:20:16.042Z,14.50
2023-04-06T05:25:26.963Z,14.00
2023-04-06T05:30:37.930Z,5.00
2023-04-06T05:35:43.847Z,6.50
2023-04-06T05:40:51.547Z,10.00
2023-04-06T05:46:02.587Z,5.33
2023-04-06T05:51:10.894Z,14.00
2023-04-06T05:56:26.098Z,5.50
2023-04-06T06:01:31.737Z,10.00
2023-04-06T06:06:37.929Z,4.00
2023-04-06T06:11:53.373Z,12.67
2023-04-06T06:17:02.958Z,8.67
2023-04-06T06:22:08.576Z,4.00
2023-04-06T06:27:18.568Z,12.00
2023-04-06T06:32:25.125Z,15.00
2023-04-06T06:37:32.420Z,5.33
2023-04-06T06:42:40.081Z,4.50
2023-04-06T06:48:02.481Z,5.00
2023-04-06T06:53:08.235Z,2.50
2023-04-06T06:58:13.514Z,10.00
2023-04-06T07:03:18.951Z,0.00
2023-04-06T07:08:25.197Z,2.00
2023-04-06T07:13:30.128Z,3.00
2023-04-06T07:18:40.636Z,0.00
2023-04-06T07:23:47.087Z,2.00
2023-04-06T07:28:52.312Z,8.00
2023-04-06T07:33:58.547Z,10.00
2023-04-06T07:39:03.660Z,5.00
2023-04-06T07:44:09.730Z,3.50
2023-04-06T07:49:15.760Z,13.00
2023-04-06T07:54:21.987Z,0.00
2023-04-06T07:59:27.046Z,2.00
2023-04-06T08:04:33.086Z,4.00
2023-04-06T08:09:37.878Z,6.00
2023-04-06T08:14:42.614Z,3.50
2023-04-06T08:19:47.792Z,2.00
2023-04-06T08:24:53.304Z,9.00
2023-04-06T08:29:58.200Z,2.00
2023-04-06T08:35:03.021Z,0.00
2023-04-06T08:40:08.628Z,1.33
2023-04-06T08:45:14.070Z,4.00
2023-04-06T08:50:20.422Z,7.00
2023-04-06T08:55:25.829Z,3.50
2023-04-06T09:00:32.027Z,6.00
2023-04-06T09:05:37.893Z,7.00
2023-04-06T09:10:44.571Z,8.67
2023-04-06T09:15:49.175Z,12.67
2023-04-06T09:26:15.990Z,2.50
2023-04-06T09:31:25.803Z,0.50
2023-04-06T09:36:40.642Z,2.67
2023-04-06T09:41:51.410Z,2.50
2023-04-06T09:47:00.959Z,2.00
2023-04-06T09:52:09.476Z,0.00
2023-04-06T09:57:27.015Z,8.00
2023-04-06T10:02:37.047Z,10.00
2023-04-06T10:07:57.198Z,2.00
2023-04-06T10:13:04.717Z,8.00
2023-04-06T10:18:09.975Z,2.00
2023-04-06T10:23:18.207Z,8.00
2023-04-06T10:28:23.077Z,4.00
2023-04-06T10:33:28.632Z,2.00
2023-04-06T10:38:42.084Z,6.00
2023-04-06T10:43:59.534Z,0.67
2023-04-06T10:49:15.712Z,0.00
2023-04-06T10:54:21.458Z,3.50
2023-04-06T10:59:27.670Z,6.00
2023-04-06T11:04:33.292Z,5.50
2023-04-06T11:09:38.854Z,2.00
2023-04-06T11:14:43.979Z,0.00
2023-04-06T11:24:53.476Z,2.00
2023-04-06T11:29:58.131Z,1.50
2023-04-06T11:35:02.962Z,3.33
2023-04-06T11:40:11.772Z,11.00
2023-04-06T11:45:18.794Z,16.00
2023-04-06T11:50:23.554Z,7.00
2023-04-06T12:00:36.942Z,4.00
2023-04-06T12:05:42.588Z,10.67
2023-04-06T12:10:47.262Z,6.50
2023-04-06T12:15:53.631Z,6.00
2023-04-06T12:20:58.437Z,2.00
2023-04-06T12:26:05.508Z,8.50
2023-04-06T12:31:18.662Z,4.00
2023-04-06T12:36:24.920Z,0.00
2023-04-06T12:41:31.941Z,6.00
2023-04-06T12:46:40.351Z,9.33
2023-04-06T12:51:48.610Z,2.00
2023-04-06T12:56:54.962Z,4.67
2023-04-06T13:02:01.113Z,0.00
2023-04-06T13:07:06.115Z,0.00
2023-04-06T13:12:13.792Z,0.00
2023-04-06T13:17:19.167Z,4.00
2023-04-06T13:22:24.043Z,2.00
2023-04-06T13:27:29.668Z,0.00
2023-04-06T13:32:36.768Z,0.00
2023-04-06T13:37:43.200Z,4.00
2023-04-06T13:42:48.575Z,0.00
2023-04-06T13:47:54.392Z,0.00
2023-04-06T13:53:00.306Z,0.00
2023-04-06T13:58:05.272Z,8.00
2023-04-06T14:03:10.421Z,2.50
2023-04-06T14:08:16.793Z,0.00
2023-04-06T14:13:23.470Z,0.00
2023-04-06T14:18:31.395Z,5.33
2023-04-06T14:23:36.410Z,2.00
2023-04-06T14:28:41.668Z,0.00
2023-04-06T14:33:48.117Z,0.00
2023-04-06T14:38:54.376Z,4.00
2023-04-06T14:43:59.467Z,1.00
2023-04-06T14:49:04.419Z,0.00
2023-04-06T14:54:12.476Z,4.00
2023-04-06T14:59:19.406Z,3.50
2023-04-06T15:04:24.401Z,2.00
2023-04-06T15:09:29.465Z,2.00
2023-04-06T15:14:34.931Z,3.33
2023-04-06T15:19:40.872Z,2.00
2023-04-06T15:24:47.439Z,0.00
2023-04-06T15:29:52.735Z,6.50
2023-04-06T15:35:00.517Z,4.00
2023-04-06T15:40:10.426Z,0.00
2023-04-06T15:45:15.462Z,0.50
2023-04-06T15:50:21.610Z,5.50
2023-04-06T15:55:26.786Z,6.00
2023-04-06T16:00:32.730Z,4.00
2023-04-06T16:05:48.312Z,6.00
2023-04-06T16:16:08.113Z,0.00
2023-04-06T16:21:20.704Z,0.00
2023-04-06T16:26:25.604Z,2.00
2023-04-06T16:31:30.348Z,6.00
2023-04-06T16:36:35.876Z,2.00
2023-04-06T16:41:41.193Z,0.00
2023-04-06T16:46:46.441Z,2.00
2023-04-06T16:51:51.506Z,0.00
2023-04-06T16:56:56.380Z,0.00
2023-04-06T17:02:01.289Z,0.67
2023-04-06T17:07:06.324Z,0.00
2023-04-06T17:12:11.496Z,0.00
2023-04-06T17:17:16.344Z,0.00
2023-04-06T17:22:22.951Z,6.67
2023-04-06T17:27:29.267Z,5.50
2023-04-06T17:32:35.302Z,4.00
2023-04-06T17:37:40.398Z,1.00
2023-04-06T17:42:45.233Z,4.00
2023-04-06T17:47:49.992Z,0.00
2023-04-06T17:52:54.745Z,1.00
2023-04-06T17:57:59.647Z,0.00
2023-04-06T18:03:04.475Z,0.00
2023-04-06T18:08:09.212Z,0.00
2023-04-06T18:18:19.771Z,2.00
2023-04-06T18:23:24.707Z,4.67
2023-04-06T18:28:29.751Z,1.50
2023-04-06T18:33:35.054Z,0.00
2023-04-06T18:38:44.398Z,0.50
2023-04-06T18:43:49.372Z,0.67
2023-04-06T18:48:54.391Z,0.50
2023-04-06T18:54:00.561Z,10.00
2023-04-06T18:59:05.535Z,0.00
2023-04-06T19:04:10.582Z,4.00
2023-04-06T19:09:15.610Z,0.00
2023-04-06T19:19:24.981Z,10.00
2023-04-06T19:24:31.036Z,0.00
2023-04-06T19:29:39.945Z,0.00
2023-04-06T19:34:46.616Z,2.00
2023-04-06T19:39:51.344Z,2.00
2023-04-06T19:44:57.453Z,0.00
2023-04-06T19:50:04.290Z,13.00
2023-04-06T19:55:10.446Z,2.00
2023-04-06T20:00:15.573Z,0.00
2023-04-06T20:05:20.229Z,0.00
2023-04-06T20:10:25.111Z,0.00
2023-04-06T20:15:30.866Z,6.50
2023-04-06T20:20:35.602Z,6.67
2023-04-06T20:25:41.702Z,0.00
2023-04-06T20:30:46.665Z,6.00
2023-04-06T20:36:02.453Z,3.00
2023-04-06T20:41:09.634Z,4.00
2023-04-06T20:46:20.915Z,6.00
2023-04-06T20:51:26.900Z,2.00
2023-04-06T20:56:33.283Z,0.00
2023-04-06T21:01:38.684Z,0.50
2023-04-06T21:06:45.174Z,0.00
2023-04-06T21:11:50.211Z,4.67
2023-04-06T21:16:57.068Z,16.67
2023-04-06T21:22:02.421Z,17.75
2023-04-06T21:27:07.713Z,30.00
2023-04-06T21:32:12.930Z,26.33
2023-04-06T21:37:19.267Z,43.33
2023-04-06T21:42:25.748Z,47.50
2023-04-06T21:47:31.120Z,22.25
2023-04-06T21:52:36.414Z,26.50
2023-04-06T21:57:41.612Z,17.25
2023-04-06T22:02:48.405Z,7.00
2023-04-06T22:07:54.603Z,2.00
2023-04-06T22:12:59.975Z,2.00
2023-04-06T22:18:05.234Z,0.00
2023-04-06T22:23:12.560Z,4.00
2023-04-06T22:28:17.997Z,6.00
2023-04-06T22:33:23.333Z,0.00
2023-04-06T22:38:28.463Z,0.00
2023-04-06T22:43:33.626Z,0.00
2023-04-06T22:48:38.781Z,0.00
2023-04-06T22:53:44.214Z,0.00
2023-04-06T22:58:49.466Z,0.00
2023-04-06T23:03:54.674Z,1.33
2023-04-06T23:09:00.053Z,11.67
2023-04-06T23:14:05.224Z,0.00
2023-04-06T23:19:11.291Z,0.00
2023-04-06T23:24:17.032Z,0.00
2023-04-06T23:29:22.440Z,15.00
2023-04-06T23:34:28.567Z,5.00
2023-04-06T23:39:33.907Z,0.00
2023-04-06T23:44:39.203Z,0.00
2023-04-06T23:49:44.650Z,0.00
2023-04-06T23:54:49.777Z,2.00
2023-04-06T23:59:54.962Z,0.00
